Penryn, United Kingdom
Current Conditions -  °F | °C
As of 5:50 PM on Thursday 29 Jan 2015 (Local Time) from EGDR Reporting Station
Rain Showers Rain Showers  
Wind Chill: 32°   Ceiling: Unl
Heat Index: 41°   Visibility: 6mi
Dew Point: 28°   Wind: 21mph
Humidity: 61%   Direction: 300°WNW
Pressure: 29.12"   Gusts: 35mph
Location:  50.17°N, 5.1°W
Report Text: EGDR 291750Z 30018G30KT 9999 VCSH FEW007 SCT025 05/M02 Q0986 BLU TEMPO 3000 SHGS SCT006 BKN014CB YLO1
Loading
Personal Weather Stations






























Interactive Weather Map New forecast layout! Learn more

10-Day Weather Forecast

Advertisements
Track Severe Weather on mobile